sensor_id;sensor_type;location;lat;lon;timestamp;P1;durP1;ratioP1;P2;durP2;ratioP2
74243;SDS011;62600;55.732;37.662;2022-08-01T00:01:33;9.95;;;3.10;;
74243;SDS011;62600;55.732;37.662;2022-08-01T00:04:00;4.25;;;2.78;;
74243;SDS011;62600;55.732;37.662;2022-08-01T00:06:25;4.65;;;2.90;;
74243;SDS011;62600;55.732;37.662;2022-08-01T00:08:51;5.22;;;3.15;;
74243;SDS011;62600;55.732;37.662;2022-08-01T00:11:16;5.10;;;2.75;;
74243;SDS011;62600;55.732;37.662;2022-08-01T00:13:42;4.55;;;2.70;;
74243;SDS011;62600;55.732;37.662;2022-08-01T00:16:07;6.15;;;3.10;;
74243;SDS011;62600;55.732;37.662;2022-08-01T00:18:33;4.90;;;2.83;;
74243;SDS011;62600;55.732;37.662;2022-08-01T00:21:00;5.03;;;3.15;;
74243;SDS011;62600;55.732;37.662;2022-08-01T00:23:26;6.65;;;3.15;;
74243;SDS011;62600;55.732;37.662;2022-08-01T00:25:52;6.05;;;3.42;;
74243;SDS011;62600;55.732;37.662;2022-08-01T00:28:17;5.97;;;3.30;;
74243;SDS011;62600;55.732;37.662;2022-08-01T00:30:43;8.48;;;3.92;;
74243;SDS011;62600;55.732;37.662;2022-08-01T00:33:08;11.00;;;3.95;;
74243;SDS011;62600;55.732;37.662;2022-08-01T00:35:34;7.22;;;3.25;;
74243;SDS011;62600;55.732;37.662;2022-08-01T00:37:59;9.07;;;3.25;;
74243;SDS011;62600;55.732;37.662;2022-08-01T00:40:25;7.28;;;3.75;;
74243;SDS011;62600;55.732;37.662;2022-08-01T00:42:50;4.45;;;3.05;;
74243;SDS011;62600;55.732;37.662;2022-08-01T00:45:15;4.00;;;3.00;;
74243;SDS011;62600;55.732;37.662;2022-08-01T00:47:41;7.43;;;3.13;;
74243;SDS011;62600;55.732;37.662;2022-08-01T00:50:07;4.78;;;2.95;;
74243;SDS011;62600;55.732;37.662;2022-08-01T00:52:33;5.07;;;3.08;;
74243;SDS011;62600;55.732;37.662;2022-08-01T00:54:59;5.30;;;2.88;;
74243;SDS011;62600;55.732;37.662;2022-08-01T00:57:25;4.32;;;3.08;;
74243;SDS011;62600;55.732;37.662;2022-08-01T00:59:52;5.88;;;3.20;;
74243;SDS011;62600;55.732;37.662;2022-08-01T01:02:17;4.93;;;2.30;;
74243;SDS011;62600;55.732;37.662;2022-08-01T01:04:43;3.22;;;2.58;;
74243;SDS011;62600;55.732;37.662;2022-08-01T01:15:04;5.65;;;2.85;;
74243;SDS011;62600;55.732;37.662;2022-08-01T01:17:52;5.38;;;2.90;;
74243;SDS011;62600;55.732;37.662;2022-08-01T01:20:30;3.33;;;2.70;;
74243;SDS011;62600;55.732;37.662;2022-08-01T01:30:38;5.82;;;3.38;;
74243;SDS011;62600;55.732;37.662;2022-08-01T01:33:06;5.57;;;3.08;;
74243;SDS011;62600;55.732;37.662;2022-08-01T01:35:36;4.95;;;2.75;;
74243;SDS011;62600;55.732;37.662;2022-08-01T01:38:26;5.85;;;3.15;;
74243;SDS011;62600;55.732;37.662;2022-08-01T01:40:54;6.47;;;4.05;;
74243;SDS011;62600;55.732;37.662;2022-08-01T01:43:22;6.03;;;3.00;;
74243;SDS011;62600;55.732;37.662;2022-08-01T01:45:49;6.57;;;3.42;;
74243;SDS011;62600;55.732;37.662;2022-08-01T01:48:17;6.75;;;4.13;;
74243;SDS011;62600;55.732;37.662;2022-08-01T01:50:47;6.35;;;3.85;;
74243;SDS011;62600;55.732;37.662;2022-08-01T01:53:16;7.43;;;3.75;;
74243;SDS011;62600;55.732;37.662;2022-08-01T01:55:45;6.65;;;3.53;;
74243;SDS011;62600;55.732;37.662;2022-08-01T01:58:13;7.85;;;3.63;;
74243;SDS011;62600;55.732;37.662;2022-08-01T02:00:41;6.82;;;4.05;;
74243;SDS011;62600;55.732;37.662;2022-08-01T02:03:10;6.00;;;3.42;;
74243;SDS011;62600;55.732;37.662;2022-08-01T02:05:37;6.53;;;3.20;;
74243;SDS011;62600;55.732;37.662;2022-08-01T02:08:04;8.18;;;3.88;;
74243;SDS011;62600;55.732;37.662;2022-08-01T02:10:31;5.90;;;3.25;;
74243;SDS011;62600;55.732;37.662;2022-08-01T02:12:59;6.50;;;3.33;;
74243;SDS011;62600;55.732;37.662;2022-08-01T02:15:28;6.80;;;3.10;;
74243;SDS011;62600;55.732;37.662;2022-08-01T02:17:56;6.40;;;3.33;;
74243;SDS011;62600;55.732;37.662;2022-08-01T02:20:23;6.80;;;3.35;;
74243;SDS011;62600;55.732;37.662;2022-08-01T02:22:50;5.95;;;2.85;;
74243;SDS011;62600;55.732;37.662;2022-08-01T02:25:22;7.00;;;2.97;;
74243;SDS011;62600;55.732;37.662;2022-08-01T02:27:53;6.25;;;3.20;;
74243;SDS011;62600;55.732;37.662;2022-08-01T02:30:21;7.10;;;3.42;;
74243;SDS011;62600;55.732;37.662;2022-08-01T02:32:51;7.38;;;3.55;;
74243;SDS011;62600;55.732;37.662;2022-08-01T02:35:29;6.18;;;3.30;;
74243;SDS011;62600;55.732;37.662;2022-08-01T02:37:57;6.13;;;2.83;;
74243;SDS011;62600;55.732;37.662;2022-08-01T02:40:26;7.25;;;3.83;;
74243;SDS011;62600;55.732;37.662;2022-08-01T02:42:53;7.13;;;3.58;;
74243;SDS011;62600;55.732;37.662;2022-08-01T02:45:22;7.47;;;3.45;;
74243;SDS011;62600;55.732;37.662;2022-08-01T02:47:51;9.50;;;3.75;;
74243;SDS011;62600;55.732;37.662;2022-08-01T02:50:19;6.55;;;3.72;;
74243;SDS011;62600;55.732;37.662;2022-08-01T02:52:48;6.90;;;3.15;;
74243;SDS011;62600;55.732;37.662;2022-08-01T02:55:15;6.45;;;3.70;;
74243;SDS011;62600;55.732;37.662;2022-08-01T02:57:44;6.35;;;3.60;;
74243;SDS011;62600;55.732;37.662;2022-08-01T03:00:12;8.15;;;3.55;;
74243;SDS011;62600;55.732;37.662;2022-08-01T03:02:39;7.35;;;3.22;;
74243;SDS011;62600;55.732;37.662;2022-08-01T03:05:06;5.68;;;3.20;;
74243;SDS011;62600;55.732;37.662;2022-08-01T03:07:33;7.03;;;3.33;;
74243;SDS011;62600;55.732;37.662;2022-08-01T03:10:00;8.98;;;3.97;;
74243;SDS011;62600;55.732;37.662;2022-08-01T03:12:28;7.15;;;3.65;;
74243;SDS011;62600;55.732;37.662;2022-08-01T03:14:56;7.03;;;3.42;;
74243;SDS011;62600;55.732;37.662;2022-08-01T03:17:25;6.93;;;3.85;;
74243;SDS011;62600;55.732;37.662;2022-08-01T03:19:53;8.38;;;3.88;;
74243;SDS011;62600;55.732;37.662;2022-08-01T03:22:20;9.77;;;3.72;;
74243;SDS011;62600;55.732;37.662;2022-08-01T03:24:49;6.45;;;3.70;;
74243;SDS011;62600;55.732;37.662;2022-08-01T03:27:20;7.60;;;3.70;;
74243;SDS011;62600;55.732;37.662;2022-08-01T03:29:48;10.00;;;3.85;;
74243;SDS011;62600;55.732;37.662;2022-08-01T03:32:16;7.97;;;4.05;;
74243;SDS011;62600;55.732;37.662;2022-08-01T03:34:44;9.50;;;3.90;;
74243;SDS011;62600;55.732;37.662;2022-08-01T03:37:17;8.02;;;4.10;;
74243;SDS011;62600;55.732;37.662;2022-08-01T03:39:49;10.15;;;4.55;;
74243;SDS011;62600;55.732;37.662;2022-08-01T03:42:20;8.20;;;4.43;;
74243;SDS011;62600;55.732;37.662;2022-08-01T03:44:52;11.23;;;5.13;;
74243;SDS011;62600;55.732;37.662;2022-08-01T03:47:21;8.77;;;4.57;;
74243;SDS011;62600;55.732;37.662;2022-08-01T03:49:51;9.18;;;4.40;;
74243;SDS011;62600;55.732;37.662;2022-08-01T03:52:18;9.27;;;3.83;;
74243;SDS011;62600;55.732;37.662;2022-08-01T03:57:14;7.82;;;4.40;;
74243;SDS011;62600;55.732;37.662;2022-08-01T03:59:41;12.15;;;4.10;;
74243;SDS011;62600;55.732;37.662;2022-08-01T04:02:08;9.50;;;3.95;;
74243;SDS011;62600;55.732;37.662;2022-08-01T04:04:34;10.40;;;4.20;;
74243;SDS011;62600;55.732;37.662;2022-08-01T04:07:00;5.43;;;4.00;;
74243;SDS011;62600;55.732;37.662;2022-08-01T04:09:31;5.00;;;3.55;;
74243;SDS011;62600;55.732;37.662;2022-08-01T04:11:58;6.18;;;4.45;;
74243;SDS011;62600;55.732;37.662;2022-08-01T04:14:25;8.65;;;4.55;;
74243;SDS011;62600;55.732;37.662;2022-08-01T04:16:51;7.57;;;4.78;;
74243;SDS011;62600;55.732;37.662;2022-08-01T04:19:17;6.60;;;4.65;;
74243;SDS011;62600;55.732;37.662;2022-08-01T04:21:42;8.48;;;5.07;;
74243;SDS011;62600;55.732;37.662;2022-08-01T04:24:10;7.53;;;5.00;;
74243;SDS011;62600;55.732;37.662;2022-08-01T04:26:39;6.90;;;4.80;;
74243;SDS011;62600;55.732;37.662;2022-08-01T04:29:06;10.88;;;5.60;;
74243;SDS011;62600;55.732;37.662;2022-08-01T04:31:34;9.07;;;5.00;;
74243;SDS011;62600;55.732;37.662;2022-08-01T04:34:01;7.82;;;4.63;;
74243;SDS011;62600;55.732;37.662;2022-08-01T04:36:29;8.80;;;5.03;;
74243;SDS011;62600;55.732;37.662;2022-08-01T04:39:00;7.15;;;4.88;;
74243;SDS011;62600;55.732;37.662;2022-08-01T04:41:29;6.53;;;3.72;;
74243;SDS011;62600;55.732;37.662;2022-08-01T04:43:56;5.90;;;4.40;;
74243;SDS011;62600;55.732;37.662;2022-08-01T04:46:24;5.13;;;3.53;;
74243;SDS011;62600;55.732;37.662;2022-08-01T04:48:50;5.72;;;3.67;;
74243;SDS011;62600;55.732;37.662;2022-08-01T04:51:16;10.95;;;3.45;;
74243;SDS011;62600;55.732;37.662;2022-08-01T04:53:43;7.32;;;3.33;;
74243;SDS011;62600;55.732;37.662;2022-08-01T04:56:11;7.22;;;3.65;;
74243;SDS011;62600;55.732;37.662;2022-08-01T04:58:38;5.43;;;3.60;;
74243;SDS011;62600;55.732;37.662;2022-08-01T05:01:05;12.68;;;4.38;;
74243;SDS011;62600;55.732;37.662;2022-08-01T05:03:30;13.43;;;3.92;;
74243;SDS011;62600;55.732;37.662;2022-08-01T05:05:56;8.50;;;3.35;;
74243;SDS011;62600;55.732;37.662;2022-08-01T05:10:47;12.77;;;3.57;;
74243;SDS011;62600;55.732;37.662;2022-08-01T05:13:12;6.07;;;2.75;;
74243;SDS011;62600;55.732;37.662;2022-08-01T05:15:37;4.70;;;2.50;;
74243;SDS011;62600;55.732;37.662;2022-08-01T05:18:03;5.18;;;2.65;;
74243;SDS011;62600;55.732;37.662;2022-08-01T05:20:29;6.50;;;2.85;;
74243;SDS011;62600;55.732;37.662;2022-08-01T05:22:54;2.78;;;2.13;;
74243;SDS011;62600;55.732;37.662;2022-08-01T05:25:20;4.78;;;2.63;;
74243;SDS011;62600;55.732;37.662;2022-08-01T05:27:46;7.97;;;3.00;;
74243;SDS011;62600;55.732;37.662;2022-08-01T05:32:37;12.10;;;3.33;;
74243;SDS011;62600;55.732;37.662;2022-08-01T05:35:03;6.32;;;2.50;;
74243;SDS011;62600;55.732;37.662;2022-08-01T05:37:29;6.78;;;2.75;;
74243;SDS011;62600;55.732;37.662;2022-08-01T05:39:55;4.63;;;2.22;;
74243;SDS011;62600;55.732;37.662;2022-08-01T05:42:21;5.65;;;2.40;;
74243;SDS011;62600;55.732;37.662;2022-08-01T05:44:46;6.30;;;2.17;;
74243;SDS011;62600;55.732;37.662;2022-08-01T05:47:12;3.03;;;2.47;;
74243;SDS011;62600;55.732;37.662;2022-08-01T05:49:38;4.82;;;2.40;;
74243;SDS011;62600;55.732;37.662;2022-08-01T05:52:03;5.60;;;2.45;;
74243;SDS011;62600;55.732;37.662;2022-08-01T05:54:30;8.38;;;2.95;;
74243;SDS011;62600;55.732;37.662;2022-08-01T05:56:55;6.20;;;2.58;;
74243;SDS011;62600;55.732;37.662;2022-08-01T05:59:24;6.20;;;2.55;;
74243;SDS011;62600;55.732;37.662;2022-08-01T06:01:50;4.18;;;2.65;;
74243;SDS011;62600;55.732;37.662;2022-08-01T06:04:16;5.72;;;3.08;;
74243;SDS011;62600;55.732;37.662;2022-08-01T06:06:41;8.15;;;2.95;;
74243;SDS011;62600;55.732;37.662;2022-08-01T06:11:32;6.07;;;2.42;;
74243;SDS011;62600;55.732;37.662;2022-08-01T06:13:57;4.45;;;2.40;;
74243;SDS011;62600;55.732;37.662;2022-08-01T06:16:23;5.85;;;2.28;;
74243;SDS011;62600;55.732;37.662;2022-08-01T06:18:49;6.28;;;2.17;;
74243;SDS011;62600;55.732;37.662;2022-08-01T06:21:14;7.65;;;2.42;;
74243;SDS011;62600;55.732;37.662;2022-08-01T06:23:40;9.30;;;2.85;;
74243;SDS011;62600;55.732;37.662;2022-08-01T06:26:07;5.13;;;2.33;;
74243;SDS011;62600;55.732;37.662;2022-08-01T06:28:33;6.35;;;2.53;;
74243;SDS011;62600;55.732;37.662;2022-08-01T06:30:58;8.63;;;2.33;;
74243;SDS011;62600;55.732;37.662;2022-08-01T06:33:24;7.45;;;2.10;;
74243;SDS011;62600;55.732;37.662;2022-08-01T06:35:50;8.32;;;2.88;;
74243;SDS011;62600;55.732;37.662;2022-08-01T06:38:15;5.85;;;2.42;;
74243;SDS011;62600;55.732;37.662;2022-08-01T06:40:41;6.20;;;2.50;;
74243;SDS011;62600;55.732;37.662;2022-08-01T06:43:07;4.72;;;2.58;;
74243;SDS011;62600;55.732;37.662;2022-08-01T06:45:32;6.93;;;2.60;;
74243;SDS011;62600;55.732;37.662;2022-08-01T06:47:58;6.57;;;2.60;;
74243;SDS011;62600;55.732;37.662;2022-08-01T06:50:23;4.82;;;2.20;;
74243;SDS011;62600;55.732;37.662;2022-08-01T06:52:49;8.73;;;3.08;;
74243;SDS011;62600;55.732;37.662;2022-08-01T06:55:14;5.50;;;2.80;;
74243;SDS011;62600;55.732;37.662;2022-08-01T06:57:50;4.60;;;2.20;;
74243;SDS011;62600;55.732;37.662;2022-08-01T07:00:16;6.25;;;2.80;;
74243;SDS011;62600;55.732;37.662;2022-08-01T07:02:45;6.32;;;2.80;;
74243;SDS011;62600;55.732;37.662;2022-08-01T07:05:12;6.00;;;2.40;;
74243;SDS011;62600;55.732;37.662;2022-08-01T07:07:37;5.07;;;2.78;;
74243;SDS011;62600;55.732;37.662;2022-08-01T07:10:03;5.90;;;2.75;;
74243;SDS011;62600;55.732;37.662;2022-08-01T07:12:29;4.38;;;2.63;;
74243;SDS011;62600;55.732;37.662;2022-08-01T07:14:54;6.15;;;2.45;;
74243;SDS011;62600;55.732;37.662;2022-08-01T07:17:20;4.25;;;1.90;;
74243;SDS011;62600;55.732;37.662;2022-08-01T07:19:46;6.15;;;2.42;;
74243;SDS011;62600;55.732;37.662;2022-08-01T07:22:12;6.50;;;2.55;;
74243;SDS011;62600;55.732;37.662;2022-08-01T07:24:39;7.07;;;2.42;;
74243;SDS011;62600;55.732;37.662;2022-08-01T07:27:04;6.22;;;2.60;;
74243;SDS011;62600;55.732;37.662;2022-08-01T07:29:30;5.15;;;2.85;;
74243;SDS011;62600;55.732;37.662;2022-08-01T07:34:21;5.07;;;2.38;;
74243;SDS011;62600;55.732;37.662;2022-08-01T07:36:48;5.82;;;2.30;;
74243;SDS011;62600;55.732;37.662;2022-08-01T07:39:13;6.32;;;2.05;;
74243;SDS011;62600;55.732;37.662;2022-08-01T07:41:39;3.58;;;1.90;;
74243;SDS011;62600;55.732;37.662;2022-08-01T07:44:04;4.47;;;2.25;;
74243;SDS011;62600;55.732;37.662;2022-08-01T07:46:30;3.85;;;2.10;;
74243;SDS011;62600;55.732;37.662;2022-08-01T07:48:56;3.58;;;2.00;;
74243;SDS011;62600;55.732;37.662;2022-08-01T07:51:21;4.30;;;2.35;;
74243;SDS011;62600;55.732;37.662;2022-08-01T07:53:47;3.22;;;2.05;;
74243;SDS011;62600;55.732;37.662;2022-08-01T07:56:12;4.75;;;1.90;;
74243;SDS011;62600;55.732;37.662;2022-08-01T07:58:38;4.68;;;2.30;;
74243;SDS011;62600;55.732;37.662;2022-08-01T08:01:03;6.05;;;2.42;;
74243;SDS011;62600;55.732;37.662;2022-08-01T08:03:29;4.57;;;1.98;;
74243;SDS011;62600;55.732;37.662;2022-08-01T08:05:54;3.22;;;2.00;;
74243;SDS011;62600;55.732;37.662;2022-08-01T08:08:20;4.65;;;1.90;;
74243;SDS011;62600;55.732;37.662;2022-08-01T08:10:46;5.38;;;1.92;;
74243;SDS011;62600;55.732;37.662;2022-08-01T08:13:11;3.90;;;2.30;;
74243;SDS011;62600;55.732;37.662;2022-08-01T08:15:36;5.10;;;2.08;;
74243;SDS011;62600;55.732;37.662;2022-08-01T08:18:02;2.78;;;2.20;;
74243;SDS011;62600;55.732;37.662;2022-08-01T08:22:54;4.40;;;2.17;;
74243;SDS011;62600;55.732;37.662;2022-08-01T08:25:20;5.63;;;2.42;;
74243;SDS011;62600;55.732;37.662;2022-08-01T08:27:49;3.80;;;1.70;;
74243;SDS011;62600;55.732;37.662;2022-08-01T08:30:15;3.92;;;1.90;;
74243;SDS011;62600;55.732;37.662;2022-08-01T08:32:40;4.53;;;1.98;;
74243;SDS011;62600;55.732;37.662;2022-08-01T08:35:06;4.50;;;1.92;;
74243;SDS011;62600;55.732;37.662;2022-08-01T08:39:59;4.43;;;1.90;;
74243;SDS011;62600;55.732;37.662;2022-08-01T08:42:24;3.42;;;2.03;;
74243;SDS011;62600;55.732;37.662;2022-08-01T08:44:50;4.63;;;2.42;;
74243;SDS011;62600;55.732;37.662;2022-08-01T08:47:15;2.72;;;1.80;;
74243;SDS011;62600;55.732;37.662;2022-08-01T08:49:43;2.83;;;2.00;;
74243;SDS011;62600;55.732;37.662;2022-08-01T08:52:09;6.20;;;3.17;;
74243;SDS011;62600;55.732;37.662;2022-08-01T08:54:37;4.30;;;2.33;;
74243;SDS011;62600;55.732;37.662;2022-08-01T08:57:05;5.45;;;2.40;;
74243;SDS011;62600;55.732;37.662;2022-08-01T08:59:31;5.63;;;2.15;;
74243;SDS011;62600;55.732;37.662;2022-08-01T09:01:57;5.68;;;2.38;;
74243;SDS011;62600;55.732;37.662;2022-08-01T09:04:23;4.55;;;2.05;;
74243;SDS011;62600;55.732;37.662;2022-08-01T09:06:50;2.00;;;1.80;;
74243;SDS011;62600;55.732;37.662;2022-08-01T09:09:16;4.30;;;2.33;;
74243;SDS011;62600;55.732;37.662;2022-08-01T09:11:42;2.50;;;1.92;;
74243;SDS011;62600;55.732;37.662;2022-08-01T09:14:15;4.13;;;2.03;;
74243;SDS011;62600;55.732;37.662;2022-08-01T09:19:34;2.97;;;2.65;;
74243;SDS011;62600;55.732;37.662;2022-08-01T09:22:02;3.38;;;2.40;;
74243;SDS011;62600;55.732;37.662;2022-08-01T09:24:30;4.30;;;2.58;;
74243;SDS011;62600;55.732;37.662;2022-08-01T09:26:57;4.60;;;2.63;;
74243;SDS011;62600;55.732;37.662;2022-08-01T09:29:24;4.32;;;2.30;;
74243;SDS011;62600;55.732;37.662;2022-08-01T09:31:51;3.72;;;2.20;;
74243;SDS011;62600;55.732;37.662;2022-08-01T09:34:26;3.88;;;2.40;;
74243;SDS011;62600;55.732;37.662;2022-08-01T09:36:54;4.03;;;2.45;;
74243;SDS011;62600;55.732;37.662;2022-08-01T09:39:26;3.35;;;1.70;;
74243;SDS011;62600;55.732;37.662;2022-08-01T09:41:52;2.35;;;2.05;;
74243;SDS011;62600;55.732;37.662;2022-08-01T09:44:19;2.65;;;1.85;;
74243;SDS011;62600;55.732;37.662;2022-08-01T09:47:02;3.83;;;2.15;;
74243;SDS011;62600;55.732;37.662;2022-08-01T09:49:29;4.07;;;1.88;;
74243;SDS011;62600;55.732;37.662;2022-08-01T09:51:56;3.08;;;2.25;;
74243;SDS011;62600;55.732;37.662;2022-08-01T09:54:32;2.63;;;2.10;;
74243;SDS011;62600;55.732;37.662;2022-08-01T09:57:08;4.00;;;2.50;;
74243;SDS011;62600;55.732;37.662;2022-08-01T09:59:36;3.15;;;1.98;;
74243;SDS011;62600;55.732;37.662;2022-08-01T10:02:05;3.90;;;2.00;;
74243;SDS011;62600;55.732;37.662;2022-08-01T10:04:31;4.22;;;2.15;;
74243;SDS011;62600;55.732;37.662;2022-08-01T10:07:03;3.10;;;1.92;;
74243;SDS011;62600;55.732;37.662;2022-08-01T10:09:31;2.53;;;1.98;;
74243;SDS011;62600;55.732;37.662;2022-08-01T10:11:59;2.85;;;1.90;;
74243;SDS011;62600;55.732;37.662;2022-08-01T10:16:52;2.97;;;2.17;;
74243;SDS011;62600;55.732;37.662;2022-08-01T10:19:20;3.03;;;2.13;;
74243;SDS011;62600;55.732;37.662;2022-08-01T10:21:48;3.17;;;2.05;;
74243;SDS011;62600;55.732;37.662;2022-08-01T10:24:17;1.70;;;1.60;;
74243;SDS011;62600;55.732;37.662;2022-08-01T10:26:46;2.85;;;2.00;;
74243;SDS011;62600;55.732;37.662;2022-08-01T10:29:14;3.10;;;2.25;;
74243;SDS011;62600;55.732;37.662;2022-08-01T10:31:44;3.28;;;2.40;;
74243;SDS011;62600;55.732;37.662;2022-08-01T10:34:10;2.97;;;2.55;;
74243;SDS011;62600;55.732;37.662;2022-08-01T10:36:37;4.72;;;2.25;;
74243;SDS011;62600;55.732;37.662;2022-08-01T10:39:05;6.07;;;2.20;;
74243;SDS011;62600;55.732;37.662;2022-08-01T10:41:32;5.43;;;2.60;;
74243;SDS011;62600;55.732;37.662;2022-08-01T10:44:00;2.55;;;2.33;;
74243;SDS011;62600;55.732;37.662;2022-08-01T10:46:27;3.38;;;2.10;;
74243;SDS011;62600;55.732;37.662;2022-08-01T10:49:01;3.80;;;2.15;;
74243;SDS011;62600;55.732;37.662;2022-08-01T10:54:02;4.00;;;1.92;;
74243;SDS011;62600;55.732;37.662;2022-08-01T10:56:50;2.40;;;2.03;;
74243;SDS011;62600;55.732;37.662;2022-08-01T10:59:20;3.00;;;2.25;;
74243;SDS011;62600;55.732;37.662;2022-08-01T11:01:55;3.90;;;2.28;;
74243;SDS011;62600;55.732;37.662;2022-08-01T11:04:31;2.60;;;2.33;;
74243;SDS011;62600;55.732;37.662;2022-08-01T11:07:20;3.40;;;2.20;;
74243;SDS011;62600;55.732;37.662;2022-08-01T11:09:51;2.75;;;2.30;;
74243;SDS011;62600;55.732;37.662;2022-08-01T11:12:38;2.40;;;2.15;;
74243;SDS011;62600;55.732;37.662;2022-08-01T11:30:51;3.80;;;1.83;;
74243;SDS011;62600;55.732;37.662;2022-08-01T11:38:35;2.88;;;2.20;;
74243;SDS011;62600;55.732;37.662;2022-08-01T11:41:12;7.38;;;2.80;;
74243;SDS011;62600;55.732;37.662;2022-08-01T11:54:43;3.78;;;2.67;;
74243;SDS011;62600;55.732;37.662;2022-08-01T11:57:11;4.25;;;2.25;;
74243;SDS011;62600;55.732;37.662;2022-08-01T11:59:44;4.75;;;2.83;;
74243;SDS011;62600;55.732;37.662;2022-08-01T12:02:25;3.17;;;2.10;;
74243;SDS011;62600;55.732;37.662;2022-08-01T12:04:55;2.92;;;2.15;;
74243;SDS011;62600;55.732;37.662;2022-08-01T12:10:15;6.15;;;2.63;;
74243;SDS011;62600;55.732;37.662;2022-08-01T12:13:03;3.38;;;2.40;;
74243;SDS011;62600;55.732;37.662;2022-08-01T12:15:30;4.30;;;2.28;;
74243;SDS011;62600;55.732;37.662;2022-08-01T12:18:04;3.75;;;2.13;;
74243;SDS011;62600;55.732;37.662;2022-08-01T12:20:32;3.50;;;2.50;;
74243;SDS011;62600;55.732;37.662;2022-08-01T12:23:03;5.32;;;2.20;;
74243;SDS011;62600;55.732;37.662;2022-08-01T12:25:31;7.43;;;2.40;;
74243;SDS011;62600;55.732;37.662;2022-08-01T12:28:09;4.20;;;2.33;;
74243;SDS011;62600;55.732;37.662;2022-08-01T12:30:37;4.35;;;2.15;;
74243;SDS011;62600;55.732;37.662;2022-08-01T12:33:04;3.90;;;2.20;;
74243;SDS011;62600;55.732;37.662;2022-08-01T12:35:35;4.88;;;2.28;;
74243;SDS011;62600;55.732;37.662;2022-08-01T12:38:07;2.40;;;2.20;;
74243;SDS011;62600;55.732;37.662;2022-08-01T12:40:43;4.18;;;2.08;;
74243;SDS011;62600;55.732;37.662;2022-08-01T12:43:15;3.47;;;2.10;;
74243;SDS011;62600;55.732;37.662;2022-08-01T12:45:42;3.85;;;2.58;;
74243;SDS011;62600;55.732;37.662;2022-08-01T12:48:10;4.32;;;2.42;;
74243;SDS011;62600;55.732;37.662;2022-08-01T12:50:37;2.83;;;2.10;;
74243;SDS011;62600;55.732;37.662;2022-08-01T12:53:05;3.25;;;2.00;;
74243;SDS011;62600;55.732;37.662;2022-08-01T12:55:30;4.25;;;2.30;;
74243;SDS011;62600;55.732;37.662;2022-08-01T12:58:07;4.05;;;2.28;;
74243;SDS011;62600;55.732;37.662;2022-08-01T13:00:35;2.95;;;1.90;;
74243;SDS011;62600;55.732;37.662;2022-08-01T13:03:09;3.42;;;1.95;;
74243;SDS011;62600;55.732;37.662;2022-08-01T13:05:46;2.80;;;2.35;;
74243;SDS011;62600;55.732;37.662;2022-08-01T13:08:17;4.20;;;2.03;;
74243;SDS011;62600;55.732;37.662;2022-08-01T13:10:45;4.53;;;2.60;;
74243;SDS011;62600;55.732;37.662;2022-08-01T13:13:12;6.63;;;2.35;;
74243;SDS011;62600;55.732;37.662;2022-08-01T13:15:39;5.18;;;1.90;;
74243;SDS011;62600;55.732;37.662;2022-08-01T13:18:29;5.68;;;2.40;;
74243;SDS011;62600;55.732;37.662;2022-08-01T13:23:35;2.67;;;2.22;;
74243;SDS011;62600;55.732;37.662;2022-08-01T13:26:01;4.57;;;2.10;;
74243;SDS011;62600;55.732;37.662;2022-08-01T13:28:27;3.95;;;2.05;;
74243;SDS011;62600;55.732;37.662;2022-08-01T13:30:59;4.38;;;2.50;;
74243;SDS011;62600;55.732;37.662;2022-08-01T13:33:28;2.65;;;1.73;;
74243;SDS011;62600;55.732;37.662;2022-08-01T13:36:08;3.75;;;2.10;;
74243;SDS011;62600;55.732;37.662;2022-08-01T13:38:34;4.22;;;2.20;;
74243;SDS011;62600;55.732;37.662;2022-08-01T13:41:17;4.57;;;2.33;;
74243;SDS011;62600;55.732;37.662;2022-08-01T13:43:43;3.47;;;2.10;;
74243;SDS011;62600;55.732;37.662;2022-08-01T13:46:08;3.85;;;2.33;;
74243;SDS011;62600;55.732;37.662;2022-08-01T13:48:34;3.92;;;2.30;;
74243;SDS011;62600;55.732;37.662;2022-08-01T13:50:59;2.97;;;2.10;;
74243;SDS011;62600;55.732;37.662;2022-08-01T13:53:26;4.55;;;2.13;;
74243;SDS011;62600;55.732;37.662;2022-08-01T13:55:51;3.88;;;2.38;;
74243;SDS011;62600;55.732;37.662;2022-08-01T13:58:17;3.40;;;2.40;;
74243;SDS011;62600;55.732;37.662;2022-08-01T14:00:42;4.05;;;2.30;;
74243;SDS011;62600;55.732;37.662;2022-08-01T14:03:08;3.17;;;2.53;;
74243;SDS011;62600;55.732;37.662;2022-08-01T14:05:35;3.53;;;2.13;;
74243;SDS011;62600;55.732;37.662;2022-08-01T14:08:01;3.85;;;2.75;;
74243;SDS011;62600;55.732;37.662;2022-08-01T14:10:27;5.70;;;2.20;;
74243;SDS011;62600;55.732;37.662;2022-08-01T14:12:54;8.35;;;2.70;;
74243;SDS011;62600;55.732;37.662;2022-08-01T14:15:20;3.85;;;2.22;;
74243;SDS011;62600;55.732;37.662;2022-08-01T14:17:45;3.70;;;2.35;;
74243;SDS011;62600;55.732;37.662;2022-08-01T14:20:11;7.03;;;2.42;;
74243;SDS011;62600;55.732;37.662;2022-08-01T14:22:36;3.35;;;2.45;;
74243;SDS011;62600;55.732;37.662;2022-08-01T14:25:02;3.47;;;1.92;;
74243;SDS011;62600;55.732;37.662;2022-08-01T14:27:28;3.60;;;2.13;;
74243;SDS011;62600;55.732;37.662;2022-08-01T14:29:55;3.92;;;2.30;;
74243;SDS011;62600;55.732;37.662;2022-08-01T14:32:21;2.53;;;1.77;;
74243;SDS011;62600;55.732;37.662;2022-08-01T14:34:46;2.28;;;2.08;;
74243;SDS011;62600;55.732;37.662;2022-08-01T14:37:12;2.63;;;1.95;;
74243;SDS011;62600;55.732;37.662;2022-08-01T14:39:37;4.82;;;2.78;;
74243;SDS011;62600;55.732;37.662;2022-08-01T14:42:03;3.10;;;2.20;;
74243;SDS011;62600;55.732;37.662;2022-08-01T14:44:29;7.70;;;2.00;;
74243;SDS011;62600;55.732;37.662;2022-08-01T14:46:54;3.85;;;2.28;;
74243;SDS011;62600;55.732;37.662;2022-08-01T14:49:20;6.20;;;2.40;;
74243;SDS011;62600;55.732;37.662;2022-08-01T14:51:45;3.33;;;2.15;;
74243;SDS011;62600;55.732;37.662;2022-08-01T14:54:10;4.93;;;2.38;;
74243;SDS011;62600;55.732;37.662;2022-08-01T14:56:36;4.25;;;2.38;;
74243;SDS011;62600;55.732;37.662;2022-08-01T14:59:01;3.47;;;2.60;;
74243;SDS011;62600;55.732;37.662;2022-08-01T15:01:27;3.60;;;2.20;;
74243;SDS011;62600;55.732;37.662;2022-08-01T15:03:52;2.90;;;2.08;;
74243;SDS011;62600;55.732;37.662;2022-08-01T15:06:18;3.65;;;2.20;;
74243;SDS011;62600;55.732;37.662;2022-08-01T15:08:43;5.15;;;2.55;;
74243;SDS011;62600;55.732;37.662;2022-08-01T15:11:09;6.85;;;2.30;;
74243;SDS011;62600;55.732;37.662;2022-08-01T15:13:35;5.07;;;2.60;;
74243;SDS011;62600;55.732;37.662;2022-08-01T15:16:00;3.85;;;2.53;;
74243;SDS011;62600;55.732;37.662;2022-08-01T15:18:27;5.32;;;2.17;;
74243;SDS011;62600;55.732;37.662;2022-08-01T15:23:18;5.45;;;3.13;;
74243;SDS011;62600;55.732;37.662;2022-08-01T15:25:44;4.50;;;2.20;;
74243;SDS011;62600;55.732;37.662;2022-08-01T15:28:09;4.20;;;2.63;;
74243;SDS011;62600;55.732;37.662;2022-08-01T15:30:35;4.20;;;2.38;;
74243;SDS011;62600;55.732;37.662;2022-08-01T15:33:01;4.25;;;3.10;;
74243;SDS011;62600;55.732;37.662;2022-08-01T15:35:26;4.97;;;3.03;;
74243;SDS011;62600;55.732;37.662;2022-08-01T15:37:51;4.00;;;2.22;;
74243;SDS011;62600;55.732;37.662;2022-08-01T15:40:17;2.63;;;2.22;;
74243;SDS011;62600;55.732;37.662;2022-08-01T15:42:42;5.45;;;2.28;;
74243;SDS011;62600;55.732;37.662;2022-08-01T15:45:09;4.38;;;2.53;;
74243;SDS011;62600;55.732;37.662;2022-08-01T15:47:35;3.95;;;2.40;;
74243;SDS011;62600;55.732;37.662;2022-08-01T15:50:00;4.47;;;2.60;;
74243;SDS011;62600;55.732;37.662;2022-08-01T15:52:27;3.92;;;2.35;;
74243;SDS011;62600;55.732;37.662;2022-08-01T15:54:52;7.65;;;3.25;;
74243;SDS011;62600;55.732;37.662;2022-08-01T15:57:18;5.53;;;3.78;;